<?xml version="1.0" encoding="UTF-8" standalone="no" ?>
<gpx xmlns="http://www.topografix.com/GPX/1/1" xmlns:xsi="http://www.w3.org/2001/XMLSchema-instance" xsi:schemaLocation="http://www.topografix.com/GPX/1/1 http://www.topografix.com/GPX/1/1/gpx.xsd" version="1.1" creator="VisuGPX - https://www.visugpx.com">
  <metadata>
    <name>Davrinche20101</name>
    <desc><![CDATA[la partie 1 des repérages]]></desc>
  </metadata>
  <trk>
    <name><![CDATA[--Orcines-- OR-5370354:ser-fr03-b]]></name>
    <trkseg>
      <trkpt lat="45.80338" lon="2.98706">
        <ele>975</ele>
        <time>2015-10-17T14:42:16Z</time>
      </trkpt>
      <trkpt lat="45.80323" lon="2.98693">
        <ele>974</ele>
        <time>2015-10-17T14:44:16Z</time>
      </trkpt>
      <trkpt lat="45.80336" lon="2.98635">
        <ele>975</ele>
        <time>2015-10-17T14:46:16Z</time>
      </trkpt>
      <trkpt lat="45.80345" lon="2.98592">
        <ele>977</ele>
        <time>2015-10-17T14:48:16Z</time>
      </trkpt>
      <trkpt lat="45.80356" lon="2.98536">
        <ele>979</ele>
        <time>2015-10-17T14:50:16Z</time>
      </trkpt>
      <trkpt lat="45.80332" lon="2.98513">
        <ele>980</ele>
        <time>2015-10-17T14:52:16Z</time>
      </trkpt>
      <trkpt lat="45.80305" lon="2.98487">
        <ele>981</ele>
        <time>2015-10-17T14:54:16Z</time>
      </trkpt>
      <trkpt lat="45.80331" lon="2.98446">
        <ele>981</ele>
        <time>2015-10-17T14:56:16Z</time>
      </trkpt>
      <trkpt lat="45.80357" lon="2.98431">
        <ele>981</ele>
        <time>2015-10-17T14:58:16Z</time>
      </trkpt>
      <trkpt lat="45.80378" lon="2.98397">
        <ele>982</ele>
        <time>2015-10-17T15:00:16Z</time>
      </trkpt>
      <trkpt lat="45.80354" lon="2.98371">
        <ele>984</ele>
        <time>2015-10-17T15:02:16Z</time>
      </trkpt>
      <trkpt lat="45.80351" lon="2.98324">
        <ele>986</ele>
        <time>2015-10-17T15:04:16Z</time>
      </trkpt>
      <trkpt lat="45.80338" lon="2.98294">
        <ele>989</ele>
        <time>2015-10-17T15:06:16Z</time>
      </trkpt>
      <trkpt lat="45.80362" lon="2.98251">
        <ele>991</ele>
        <time>2015-10-17T15:08:16Z</time>
      </trkpt>
      <trkpt lat="45.80395" lon="2.98217">
        <ele>991</ele>
        <time>2015-10-17T15:10:16Z</time>
      </trkpt>
      <trkpt lat="45.8038" lon="2.98159">
        <ele>995</ele>
        <time>2015-10-17T15:12:16Z</time>
      </trkpt>
      <trkpt lat="45.80395" lon="2.98124">
        <ele>997</ele>
        <time>2015-10-17T15:14:16Z</time>
      </trkpt>
      <trkpt lat="45.80399" lon="2.98088">
        <ele>1000</ele>
        <time>2015-10-17T15:16:16Z</time>
      </trkpt>
      <trkpt lat="45.80411" lon="2.98032">
        <ele>1006</ele>
        <time>2015-10-17T15:18:16Z</time>
      </trkpt>
      <trkpt lat="45.80434" lon="2.97993">
        <ele>1010</ele>
        <time>2015-10-17T15:20:16Z</time>
      </trkpt>
      <trkpt lat="45.80449" lon="2.9791">
        <ele>1015</ele>
        <time>2015-10-17T15:22:16Z</time>
      </trkpt>
      <trkpt lat="45.8045" lon="2.97817">
        <ele>1021</ele>
        <time>2015-10-17T15:24:16Z</time>
      </trkpt>
      <trkpt lat="45.80452" lon="2.97738">
        <ele>1023</ele>
        <time>2015-10-17T15:26:16Z</time>
      </trkpt>
      <trkpt lat="45.80454" lon="2.9765">
        <ele>1026</ele>
        <time>2015-10-17T15:28:16Z</time>
      </trkpt>
      <trkpt lat="45.80463" lon="2.97599">
        <ele>1025</ele>
        <time>2015-10-17T15:30:16Z</time>
      </trkpt>
      <trkpt lat="45.80452" lon="2.97521">
        <ele>1020</ele>
        <time>2015-10-17T15:32:16Z</time>
      </trkpt>
      <trkpt lat="45.80431" lon="2.97478">
        <ele>1022</ele>
        <time>2015-10-17T15:34:16Z</time>
      </trkpt>
      <trkpt lat="45.80402" lon="2.97461">
        <ele>1026</ele>
        <time>2015-10-17T15:36:16Z</time>
      </trkpt>
      <trkpt lat="45.80387" lon="2.97433">
        <ele>1030</ele>
        <time>2015-10-17T15:38:16Z</time>
      </trkpt>
      <trkpt lat="45.80386" lon="2.97363">
        <ele>1032</ele>
        <time>2015-10-17T15:40:16Z</time>
      </trkpt>
      <trkpt lat="45.80375" lon="2.97294">
        <ele>1037</ele>
        <time>2015-10-17T15:42:16Z</time>
      </trkpt>
      <trkpt lat="45.80368" lon="2.9723">
        <ele>1039</ele>
        <time>2015-10-17T15:44:16Z</time>
      </trkpt>
      <trkpt lat="45.8036" lon="2.97165">
        <ele>1043</ele>
        <time>2015-10-17T15:46:16Z</time>
      </trkpt>
      <trkpt lat="45.8035" lon="2.97109">
        <ele>1045</ele>
        <time>2015-10-17T15:48:16Z</time>
      </trkpt>
      <trkpt lat="45.80338" lon="2.97058">
        <ele>1046</ele>
        <time>2015-10-17T15:50:16Z</time>
      </trkpt>
      <trkpt lat="45.8033" lon="2.97011">
        <ele>1044</ele>
        <time>2015-10-17T15:52:16Z</time>
      </trkpt>
      <trkpt lat="45.80312" lon="2.96968">
        <ele>1046</ele>
        <time>2015-10-17T15:54:16Z</time>
      </trkpt>
      <trkpt lat="45.80303" lon="2.96918">
        <ele>1045</ele>
        <time>2015-10-17T15:56:16Z</time>
      </trkpt>
      <trkpt lat="45.80272" lon="2.96818">
        <ele>1048</ele>
        <time>2015-10-17T15:58:16Z</time>
      </trkpt>
      <trkpt lat="45.80259" lon="2.96766">
        <ele>1047</ele>
        <time>2015-10-17T16:00:16Z</time>
      </trkpt>
      <trkpt lat="45.80235" lon="2.96702">
        <ele>1047</ele>
        <time>2015-10-17T16:02:16Z</time>
      </trkpt>
      <trkpt lat="45.80214" lon="2.96669">
        <ele>1047</ele>
        <time>2015-10-17T16:04:16Z</time>
      </trkpt>
      <trkpt lat="45.80265" lon="2.96723">
        <ele>1046</ele>
        <time>2015-10-17T16:06:16Z</time>
      </trkpt>
      <trkpt lat="45.80248" lon="2.96674">
        <ele>1045</ele>
        <time>2015-10-17T16:08:16Z</time>
      </trkpt>
      <trkpt lat="45.8022" lon="2.96642">
        <ele>1047</ele>
        <time>2015-10-17T16:10:16Z</time>
      </trkpt>
      <trkpt lat="45.80205" lon="2.96631">
        <ele>1047</ele>
        <time>2015-10-17T16:12:16Z</time>
      </trkpt>
      <trkpt lat="45.80184" lon="2.96579">
        <ele>1046</ele>
        <time>2015-10-17T16:14:16Z</time>
      </trkpt>
      <trkpt lat="45.80149" lon="2.96457">
        <ele>1047</ele>
        <time>2015-10-17T16:16:16Z</time>
      </trkpt>
      <trkpt lat="45.80124" lon="2.96416">
        <ele>1047</ele>
        <time>2015-10-17T16:18:16Z</time>
      </trkpt>
      <trkpt lat="45.80112" lon="2.9638">
        <ele>1047</ele>
        <time>2015-10-17T16:20:16Z</time>
      </trkpt>
      <trkpt lat="45.80088" lon="2.9632">
        <ele>1044</ele>
        <time>2015-10-17T16:22:16Z</time>
      </trkpt>
      <trkpt lat="45.80067" lon="2.9629">
        <ele>1043</ele>
        <time>2015-10-17T16:24:16Z</time>
      </trkpt>
      <trkpt lat="45.80051" lon="2.96247">
        <ele>1042</ele>
        <time>2015-10-17T16:26:16Z</time>
      </trkpt>
      <trkpt lat="45.80036" lon="2.96193">
        <ele>1041</ele>
        <time>2015-10-17T16:28:16Z</time>
      </trkpt>
      <trkpt lat="45.80027" lon="2.96137">
        <ele>1040</ele>
        <time>2015-10-17T16:30:16Z</time>
      </trkpt>
      <trkpt lat="45.80016" lon="2.96122">
        <ele>1040</ele>
        <time>2015-10-17T16:32:16Z</time>
      </trkpt>
      <trkpt lat="45.80024" lon="2.96024">
        <ele>1035</ele>
        <time>2015-10-17T16:34:16Z</time>
      </trkpt>
      <trkpt lat="45.80021" lon="2.95903">
        <ele>1029</ele>
        <time>2015-10-17T16:36:16Z</time>
      </trkpt>
      <trkpt lat="45.80021" lon="2.95828">
        <ele>1025</ele>
        <time>2015-10-17T16:38:16Z</time>
      </trkpt>
      <trkpt lat="45.80013" lon="2.95727">
        <ele>1018</ele>
        <time>2015-10-17T16:40:16Z</time>
      </trkpt>
      <trkpt lat="45.80003" lon="2.95697">
        <ele>1016</ele>
        <time>2015-10-17T16:42:16Z</time>
      </trkpt>
      <trkpt lat="45.79991" lon="2.9565">
        <ele>1015</ele>
        <time>2015-10-17T16:44:16Z</time>
      </trkpt>
      <trkpt lat="45.79992" lon="2.95601">
        <ele>1013</ele>
        <time>2015-10-17T16:46:16Z</time>
      </trkpt>
      <trkpt lat="45.79953" lon="2.95556">
        <ele>1013</ele>
        <time>2015-10-17T16:48:16Z</time>
      </trkpt>
      <trkpt lat="45.79922" lon="2.95506">
        <ele>1009</ele>
        <time>2015-10-17T16:50:16Z</time>
      </trkpt>
      <trkpt lat="45.79904" lon="2.95466">
        <ele>1007</ele>
        <time>2015-10-17T16:52:16Z</time>
      </trkpt>
      <trkpt lat="45.79897" lon="2.95442">
        <ele>1006</ele>
        <time>2015-10-17T16:54:16Z</time>
      </trkpt>
      <trkpt lat="45.79858" lon="2.95403">
        <ele>1005</ele>
        <time>2015-10-17T16:56:16Z</time>
      </trkpt>
      <trkpt lat="45.79805" lon="2.95352">
        <ele>1006</ele>
        <time>2015-10-17T16:58:16Z</time>
      </trkpt>
      <trkpt lat="45.79778" lon="2.95322">
        <ele>1005</ele>
        <time>2015-10-17T17:00:16Z</time>
      </trkpt>
      <trkpt lat="45.79754" lon="2.9529">
        <ele>1005</ele>
        <time>2015-10-17T17:02:16Z</time>
      </trkpt>
      <trkpt lat="45.7973" lon="2.95266">
        <ele>1006</ele>
        <time>2015-10-17T17:04:16Z</time>
      </trkpt>
      <trkpt lat="45.79668" lon="2.95187">
        <ele>1007</ele>
        <time>2015-10-17T17:06:16Z</time>
      </trkpt>
      <trkpt lat="45.79633" lon="2.95137">
        <ele>1011</ele>
        <time>2015-10-17T17:08:16Z</time>
      </trkpt>
      <trkpt lat="45.79603" lon="2.95077">
        <ele>1014</ele>
        <time>2015-10-17T17:10:16Z</time>
      </trkpt>
      <trkpt lat="45.79582" lon="2.95049">
        <ele>1016</ele>
        <time>2015-10-17T17:12:16Z</time>
      </trkpt>
      <trkpt lat="45.79551" lon="2.95006">
        <ele>1021</ele>
        <time>2015-10-17T17:14:16Z</time>
      </trkpt>
      <trkpt lat="45.79531" lon="2.94961">
        <ele>1024</ele>
        <time>2015-10-17T17:16:16Z</time>
      </trkpt>
      <trkpt lat="45.79511" lon="2.94921">
        <ele>1024</ele>
        <time>2015-10-17T17:18:16Z</time>
      </trkpt>
      <trkpt lat="45.7947" lon="2.9488">
        <ele>1031</ele>
        <time>2015-10-17T17:20:16Z</time>
      </trkpt>
      <trkpt lat="45.79437" lon="2.94813">
        <ele>1034</ele>
        <time>2015-10-17T17:22:16Z</time>
      </trkpt>
      <trkpt lat="45.79401" lon="2.94785">
        <ele>1034</ele>
        <time>2015-10-17T17:24:16Z</time>
      </trkpt>
      <trkpt lat="45.79356" lon="2.94715">
        <ele>1036</ele>
        <time>2015-10-17T17:26:16Z</time>
      </trkpt>
      <trkpt lat="45.79327" lon="2.94693">
        <ele>1033</ele>
        <time>2015-10-17T17:28:16Z</time>
      </trkpt>
      <trkpt lat="45.79298" lon="2.94652">
        <ele>1035</ele>
        <time>2015-10-17T17:30:16Z</time>
      </trkpt>
      <trkpt lat="45.79285" lon="2.9461">
        <ele>1037</ele>
        <time>2015-10-17T17:32:16Z</time>
      </trkpt>
      <trkpt lat="45.79271" lon="2.94583">
        <ele>1036</ele>
        <time>2015-10-17T17:34:16Z</time>
      </trkpt>
      <trkpt lat="45.7926" lon="2.94545">
        <ele>1036</ele>
        <time>2015-10-17T17:36:16Z</time>
      </trkpt>
      <trkpt lat="45.79244" lon="2.94502">
        <ele>1035</ele>
        <time>2015-10-17T17:38:16Z</time>
      </trkpt>
      <trkpt lat="45.79229" lon="2.94457">
        <ele>1038</ele>
        <time>2015-10-17T17:40:16Z</time>
      </trkpt>
      <trkpt lat="45.79214" lon="2.94399">
        <ele>1040</ele>
        <time>2015-10-17T17:42:16Z</time>
      </trkpt>
      <trkpt lat="45.79196" lon="2.94332">
        <ele>1039</ele>
        <time>2015-10-17T17:44:16Z</time>
      </trkpt>
      <trkpt lat="45.79184" lon="2.94275">
        <ele>1037</ele>
        <time>2015-10-17T17:46:16Z</time>
      </trkpt>
      <trkpt lat="45.79175" lon="2.94219">
        <ele>1036</ele>
        <time>2015-10-17T17:48:16Z</time>
      </trkpt>
      <trkpt lat="45.79167" lon="2.9415">
        <ele>1034</ele>
        <time>2015-10-17T17:50:16Z</time>
      </trkpt>
      <trkpt lat="45.79164" lon="2.94105">
        <ele>1033</ele>
        <time>2015-10-17T17:52:16Z</time>
      </trkpt>
      <trkpt lat="45.7917" lon="2.94066">
        <ele>1032</ele>
        <time>2015-10-17T17:54:16Z</time>
      </trkpt>
      <trkpt lat="45.79164" lon="2.94021">
        <ele>1031</ele>
        <time>2015-10-17T17:56:16Z</time>
      </trkpt>
      <trkpt lat="45.79181" lon="2.93978">
        <ele>1032</ele>
        <time>2015-10-17T17:58:16Z</time>
      </trkpt>
      <trkpt lat="45.79203" lon="2.93953">
        <ele>1037</ele>
        <time>2015-10-17T18:00:16Z</time>
      </trkpt>
      <trkpt lat="45.7922" lon="2.93916">
        <ele>1038</ele>
        <time>2015-10-17T18:02:16Z</time>
      </trkpt>
      <trkpt lat="45.79245" lon="2.93863">
        <ele>1038</ele>
        <time>2015-10-17T18:04:16Z</time>
      </trkpt>
      <trkpt lat="45.79278" lon="2.93822">
        <ele>1047</ele>
        <time>2015-10-17T18:06:16Z</time>
      </trkpt>
      <trkpt lat="45.79294" lon="2.93798">
        <ele>1049</ele>
        <time>2015-10-17T18:08:16Z</time>
      </trkpt>
      <trkpt lat="45.79311" lon="2.93779">
        <ele>1053</ele>
        <time>2015-10-17T18:10:16Z</time>
      </trkpt>
      <trkpt lat="45.79329" lon="2.93757">
        <ele>1056</ele>
        <time>2015-10-17T18:12:16Z</time>
      </trkpt>
      <trkpt lat="45.79353" lon="2.93736">
        <ele>1063</ele>
        <time>2015-10-17T18:14:16Z</time>
      </trkpt>
      <trkpt lat="45.79372" lon="2.93719">
        <ele>1069</ele>
        <time>2015-10-17T18:16:16Z</time>
      </trkpt>
      <trkpt lat="45.79399" lon="2.93704">
        <ele>1078</ele>
        <time>2015-10-17T18:18:16Z</time>
      </trkpt>
      <trkpt lat="45.79426" lon="2.93695">
        <ele>1087</ele>
        <time>2015-10-17T18:20:16Z</time>
      </trkpt>
      <trkpt lat="45.79468" lon="2.93678">
        <ele>1097</ele>
        <time>2015-10-17T18:22:16Z</time>
      </trkpt>
      <trkpt lat="45.79504" lon="2.93669">
        <ele>1107</ele>
        <time>2015-10-17T18:24:16Z</time>
      </trkpt>
      <trkpt lat="45.79543" lon="2.93667">
        <ele>1114</ele>
        <time>2015-10-17T18:26:16Z</time>
      </trkpt>
      <trkpt lat="45.79582" lon="2.93678">
        <ele>1126</ele>
        <time>2015-10-17T18:28:16Z</time>
      </trkpt>
      <trkpt lat="45.79622" lon="2.93702">
        <ele>1135</ele>
        <time>2015-10-17T18:30:16Z</time>
      </trkpt>
      <trkpt lat="45.79677" lon="2.93764">
        <ele>1153</ele>
        <time>2015-10-17T18:32:16Z</time>
      </trkpt>
      <trkpt lat="45.79701" lon="2.93802">
        <ele>1158</ele>
        <time>2015-10-17T18:34:16Z</time>
      </trkpt>
      <trkpt lat="45.79692" lon="2.9385">
        <ele>1167</ele>
        <time>2015-10-17T18:36:16Z</time>
      </trkpt>
      <trkpt lat="45.79706" lon="2.93893">
        <ele>1172</ele>
        <time>2015-10-17T18:38:16Z</time>
      </trkpt>
      <trkpt lat="45.79712" lon="2.93929">
        <ele>1177</ele>
        <time>2015-10-17T18:40:16Z</time>
      </trkpt>
      <trkpt lat="45.79705" lon="2.9397">
        <ele>1183</ele>
        <time>2015-10-17T18:42:16Z</time>
      </trkpt>
      <trkpt lat="45.79682" lon="2.9397">
        <ele>1184</ele>
        <time>2015-10-17T18:44:16Z</time>
      </trkpt>
      <trkpt lat="45.79656" lon="2.9397">
        <ele>1186</ele>
        <time>2015-10-17T18:46:16Z</time>
      </trkpt>
      <trkpt lat="45.79639" lon="2.93979">
        <ele>1189</ele>
        <time>2015-10-17T18:48:16Z</time>
      </trkpt>
      <trkpt lat="45.79613" lon="2.9399">
        <ele>1194</ele>
        <time>2015-10-17T18:50:16Z</time>
      </trkpt>
      <trkpt lat="45.79592" lon="2.94005">
        <ele>1198</ele>
        <time>2015-10-17T18:52:16Z</time>
      </trkpt>
      <trkpt lat="45.79577" lon="2.94061">
        <ele>1201</ele>
        <time>2015-10-17T18:54:16Z</time>
      </trkpt>
      <trkpt lat="45.79564" lon="2.94103">
        <ele>1202</ele>
        <time>2015-10-17T18:56:16Z</time>
      </trkpt>
      <trkpt lat="45.79576" lon="2.94168">
        <ele>1213</ele>
        <time>2015-10-17T18:58:16Z</time>
      </trkpt>
      <trkpt lat="45.79601" lon="2.94228">
        <ele>1222</ele>
        <time>2015-10-17T19:00:16Z</time>
      </trkpt>
      <trkpt lat="45.79643" lon="2.94262">
        <ele>1229</ele>
        <time>2015-10-17T19:02:16Z</time>
      </trkpt>
      <trkpt lat="45.79694" lon="2.94275">
        <ele>1233</ele>
        <time>2015-10-17T19:04:16Z</time>
      </trkpt>
      <trkpt lat="45.79739" lon="2.94247">
        <ele>1230</ele>
        <time>2015-10-17T19:06:16Z</time>
      </trkpt>
      <trkpt lat="45.79764" lon="2.94189">
        <ele>1217</ele>
        <time>2015-10-17T19:08:16Z</time>
      </trkpt>
      <trkpt lat="45.79775" lon="2.94121">
        <ele>1204</ele>
        <time>2015-10-17T19:10:16Z</time>
      </trkpt>
      <trkpt lat="45.79764" lon="2.94052">
        <ele>1192</ele>
        <time>2015-10-17T19:12:16Z</time>
      </trkpt>
      <trkpt lat="45.79737" lon="2.94">
        <ele>1186</ele>
        <time>2015-10-17T19:14:16Z</time>
      </trkpt>
      <trkpt lat="45.79709" lon="2.93981">
        <ele>1185</ele>
        <time>2015-10-17T19:16:16Z</time>
      </trkpt>
      <trkpt lat="45.79709" lon="2.93953">
        <ele>1181</ele>
        <time>2015-10-17T19:18:16Z</time>
      </trkpt>
      <trkpt lat="45.79709" lon="2.93908">
        <ele>1174</ele>
        <time>2015-10-17T19:20:16Z</time>
      </trkpt>
      <trkpt lat="45.79696" lon="2.93876">
        <ele>1170</ele>
        <time>2015-10-17T19:22:16Z</time>
      </trkpt>
      <trkpt lat="45.79696" lon="2.93831">
        <ele>1164</ele>
        <time>2015-10-17T19:24:16Z</time>
      </trkpt>
      <trkpt lat="45.7969" lon="2.93782">
        <ele>1155</ele>
        <time>2015-10-17T19:26:16Z</time>
      </trkpt>
      <trkpt lat="45.79658" lon="2.93747">
        <ele>1150</ele>
        <time>2015-10-17T19:28:16Z</time>
      </trkpt>
      <trkpt lat="45.79636" lon="2.93713">
        <ele>1139</ele>
        <time>2015-10-17T19:30:16Z</time>
      </trkpt>
      <trkpt lat="45.79594" lon="2.93683">
        <ele>1128</ele>
        <time>2015-10-17T19:32:16Z</time>
      </trkpt>
      <trkpt lat="45.79574" lon="2.93661">
        <ele>1118</ele>
        <time>2015-10-17T19:34:16Z</time>
      </trkpt>
      <trkpt lat="45.79538" lon="2.93651">
        <ele>1107</ele>
        <time>2015-10-17T19:36:16Z</time>
      </trkpt>
      <trkpt lat="45.79503" lon="2.93636">
        <ele>1094</ele>
        <time>2015-10-17T19:38:16Z</time>
      </trkpt>
      <trkpt lat="45.7951" lon="2.93599">
        <ele>1082</ele>
        <time>2015-10-17T19:40:16Z</time>
      </trkpt>
      <trkpt lat="45.79535" lon="2.93599">
        <ele>1087</ele>
        <time>2015-10-17T19:42:16Z</time>
      </trkpt>
      <trkpt lat="45.79541" lon="2.93556">
        <ele>1073</ele>
        <time>2015-10-17T19:44:16Z</time>
      </trkpt>
      <trkpt lat="45.79582" lon="2.935">
        <ele>1062</ele>
        <time>2015-10-17T19:46:16Z</time>
      </trkpt>
      <trkpt lat="45.7963" lon="2.93466">
        <ele>1048</ele>
        <time>2015-10-17T19:48:16Z</time>
      </trkpt>
      <trkpt lat="45.79685" lon="2.93423">
        <ele>1029</ele>
        <time>2015-10-17T19:50:16Z</time>
      </trkpt>
      <trkpt lat="45.79661" lon="2.93363">
        <ele>1010</ele>
        <time>2015-10-17T19:52:16Z</time>
      </trkpt>
      <trkpt lat="45.79603" lon="2.93363">
        <ele>1011</ele>
        <time>2015-10-17T19:54:16Z</time>
      </trkpt>
      <trkpt lat="45.79571" lon="2.93318">
        <ele>997</ele>
        <time>2015-10-17T19:56:16Z</time>
      </trkpt>
      <trkpt lat="45.79515" lon="2.93331">
        <ele>993</ele>
        <time>2015-10-17T19:58:16Z</time>
      </trkpt>
      <trkpt lat="45.7948" lon="2.93275">
        <ele>982</ele>
        <time>2015-10-17T20:00:16Z</time>
      </trkpt>
      <trkpt lat="45.79479" lon="2.93252">
        <ele>979</ele>
        <time>2015-10-17T20:02:16Z</time>
      </trkpt>
      <trkpt lat="45.79426" lon="2.93194">
        <ele>968</ele>
        <time>2015-10-17T20:04:16Z</time>
      </trkpt>
      <trkpt lat="45.79398" lon="2.93125">
        <ele>962</ele>
        <time>2015-10-17T20:06:16Z</time>
      </trkpt>
      <trkpt lat="45.7938" lon="2.9323">
        <ele>964</ele>
        <time>2015-10-17T20:08:16Z</time>
      </trkpt>
      <trkpt lat="45.79369" lon="2.93316">
        <ele>969</ele>
        <time>2015-10-17T20:10:16Z</time>
      </trkpt>
      <trkpt lat="45.79339" lon="2.93365">
        <ele>971</ele>
        <time>2015-10-17T20:12:16Z</time>
      </trkpt>
      <trkpt lat="45.79307" lon="2.93404">
        <ele>972</ele>
        <time>2015-10-17T20:14:16Z</time>
      </trkpt>
      <trkpt lat="45.79269" lon="2.93434">
        <ele>971</ele>
        <time>2015-10-17T20:16:16Z</time>
      </trkpt>
      <trkpt lat="45.79254" lon="2.93453">
        <ele>971</ele>
        <time>2015-10-17T20:18:16Z</time>
      </trkpt>
      <trkpt lat="45.79215" lon="2.93531">
        <ele>976</ele>
        <time>2015-10-17T20:20:16Z</time>
      </trkpt>
      <trkpt lat="45.79215" lon="2.93565">
        <ele>980</ele>
        <time>2015-10-17T20:22:16Z</time>
      </trkpt>
      <trkpt lat="45.79202" lon="2.93614">
        <ele>984</ele>
        <time>2015-10-17T20:24:16Z</time>
      </trkpt>
      <trkpt lat="45.79179" lon="2.93657">
        <ele>986</ele>
        <time>2015-10-17T20:26:16Z</time>
      </trkpt>
      <trkpt lat="45.79172" lon="2.93741">
        <ele>1003</ele>
        <time>2015-10-17T20:28:16Z</time>
      </trkpt>
      <trkpt lat="45.79164" lon="2.93803">
        <ele>1013</ele>
        <time>2015-10-17T20:30:16Z</time>
      </trkpt>
      <trkpt lat="45.79161" lon="2.93878">
        <ele>1022</ele>
        <time>2015-10-17T20:32:16Z</time>
      </trkpt>
      <trkpt lat="45.79161" lon="2.93949">
        <ele>1028</ele>
        <time>2015-10-17T20:34:16Z</time>
      </trkpt>
      <trkpt lat="45.79163" lon="2.93992">
        <ele>1030</ele>
        <time>2015-10-17T20:36:16Z</time>
      </trkpt>
      <trkpt lat="45.79166" lon="2.94046">
        <ele>1031</ele>
        <time>2015-10-17T20:38:16Z</time>
      </trkpt>
      <trkpt lat="45.79167" lon="2.94129">
        <ele>1033</ele>
        <time>2015-10-17T20:40:16Z</time>
      </trkpt>
      <trkpt lat="45.79166" lon="2.94196">
        <ele>1034</ele>
        <time>2015-10-17T20:42:16Z</time>
      </trkpt>
      <trkpt lat="45.7917" lon="2.94254">
        <ele>1034</ele>
        <time>2015-10-17T20:44:16Z</time>
      </trkpt>
      <trkpt lat="45.79191" lon="2.94303">
        <ele>1038</ele>
        <time>2015-10-17T20:46:16Z</time>
      </trkpt>
      <trkpt lat="45.79205" lon="2.94372">
        <ele>1040</ele>
        <time>2015-10-17T20:48:16Z</time>
      </trkpt>
      <trkpt lat="45.79223" lon="2.94434">
        <ele>1040</ele>
        <time>2015-10-17T20:50:16Z</time>
      </trkpt>
      <trkpt lat="45.79235" lon="2.94485">
        <ele>1036</ele>
        <time>2015-10-17T20:52:16Z</time>
      </trkpt>
      <trkpt lat="45.79251" lon="2.94524">
        <ele>1034</ele>
        <time>2015-10-17T20:54:16Z</time>
      </trkpt>
      <trkpt lat="45.79263" lon="2.94561">
        <ele>1035</ele>
        <time>2015-10-17T20:56:16Z</time>
      </trkpt>
      <trkpt lat="45.79277" lon="2.94597">
        <ele>1036</ele>
        <time>2015-10-17T20:58:16Z</time>
      </trkpt>
      <trkpt lat="45.7929" lon="2.94629">
        <ele>1036</ele>
        <time>2015-10-17T21:00:16Z</time>
      </trkpt>
      <trkpt lat="45.79259" lon="2.94582">
        <ele>1033</ele>
        <time>2015-10-17T21:02:16Z</time>
      </trkpt>
      <trkpt lat="45.79232" lon="2.94541">
        <ele>1034</ele>
        <time>2015-10-17T21:04:16Z</time>
      </trkpt>
      <trkpt lat="45.79208" lon="2.94505">
        <ele>1036</ele>
        <time>2015-10-17T21:06:16Z</time>
      </trkpt>
      <trkpt lat="45.79172" lon="2.94468">
        <ele>1036</ele>
        <time>2015-10-17T21:08:16Z</time>
      </trkpt>
      <trkpt lat="45.79143" lon="2.94445">
        <ele>1038</ele>
        <time>2015-10-17T21:10:16Z</time>
      </trkpt>
      <trkpt lat="45.79126" lon="2.9443">
        <ele>1039</ele>
        <time>2015-10-17T21:12:16Z</time>
      </trkpt>
      <trkpt lat="45.79084" lon="2.94436">
        <ele>1042</ele>
        <time>2015-10-17T21:14:16Z</time>
      </trkpt>
      <trkpt lat="45.79051" lon="2.9441">
        <ele>1044</ele>
        <time>2015-10-17T21:16:16Z</time>
      </trkpt>
      <trkpt lat="45.79015" lon="2.94402">
        <ele>1048</ele>
        <time>2015-10-17T21:18:16Z</time>
      </trkpt>
      <trkpt lat="45.78985" lon="2.9441">
        <ele>1048</ele>
        <time>2015-10-17T21:20:16Z</time>
      </trkpt>
      <trkpt lat="45.78949" lon="2.94406">
        <ele>1050</ele>
        <time>2015-10-17T21:22:16Z</time>
      </trkpt>
      <trkpt lat="45.78913" lon="2.94408">
        <ele>1051</ele>
        <time>2015-10-17T21:24:16Z</time>
      </trkpt>
      <trkpt lat="45.78889" lon="2.944">
        <ele>1050</ele>
        <time>2015-10-17T21:26:16Z</time>
      </trkpt>
      <trkpt lat="45.7885" lon="2.94419">
        <ele>1047</ele>
        <time>2015-10-17T21:28:16Z</time>
      </trkpt>
      <trkpt lat="45.78813" lon="2.94447">
        <ele>1045</ele>
        <time>2015-10-17T21:30:16Z</time>
      </trkpt>
      <trkpt lat="45.78781" lon="2.94453">
        <ele>1043</ele>
        <time>2015-10-17T21:32:16Z</time>
      </trkpt>
      <trkpt lat="45.78741" lon="2.94447">
        <ele>1041</ele>
        <time>2015-10-17T21:34:16Z</time>
      </trkpt>
      <trkpt lat="45.78708" lon="2.94451">
        <ele>1040</ele>
        <time>2015-10-17T21:36:16Z</time>
      </trkpt>
      <trkpt lat="45.7868" lon="2.94475">
        <ele>1039</ele>
        <time>2015-10-17T21:38:16Z</time>
      </trkpt>
      <trkpt lat="45.7866" lon="2.94505">
        <ele>1040</ele>
        <time>2015-10-17T21:40:16Z</time>
      </trkpt>
      <trkpt lat="45.78645" lon="2.94526">
        <ele>1042</ele>
        <time>2015-10-17T21:42:16Z</time>
      </trkpt>
      <trkpt lat="45.78629" lon="2.94554">
        <ele>1044</ele>
        <time>2015-10-17T21:44:16Z</time>
      </trkpt>
      <trkpt lat="45.78617" lon="2.9458">
        <ele>1045</ele>
        <time>2015-10-17T21:46:16Z</time>
      </trkpt>
      <trkpt lat="45.78606" lon="2.94612">
        <ele>1046</ele>
        <time>2015-10-17T21:48:16Z</time>
      </trkpt>
      <trkpt lat="45.78609" lon="2.94689">
        <ele>1048</ele>
        <time>2015-10-17T21:50:16Z</time>
      </trkpt>
      <trkpt lat="45.78612" lon="2.94745">
        <ele>1048</ele>
        <time>2015-10-17T21:52:16Z</time>
      </trkpt>
      <trkpt lat="45.78621" lon="2.94794">
        <ele>1050</ele>
        <time>2015-10-17T21:54:16Z</time>
      </trkpt>
      <trkpt lat="45.7863" lon="2.9485">
        <ele>1053</ele>
        <time>2015-10-17T21:56:16Z</time>
      </trkpt>
      <trkpt lat="45.78642" lon="2.94897">
        <ele>1054</ele>
        <time>2015-10-17T21:58:16Z</time>
      </trkpt>
      <trkpt lat="45.7865" lon="2.94932">
        <ele>1056</ele>
        <time>2015-10-17T22:00:16Z</time>
      </trkpt>
      <trkpt lat="45.78623" lon="2.95035">
        <ele>1063</ele>
        <time>2015-10-17T22:02:16Z</time>
      </trkpt>
      <trkpt lat="45.78624" lon="2.95071">
        <ele>1066</ele>
        <time>2015-10-17T22:04:16Z</time>
      </trkpt>
      <trkpt lat="45.78633" lon="2.95138">
        <ele>1072</ele>
        <time>2015-10-17T22:06:16Z</time>
      </trkpt>
      <trkpt lat="45.78621" lon="2.95196">
        <ele>1074</ele>
        <time>2015-10-17T22:08:16Z</time>
      </trkpt>
      <trkpt lat="45.78612" lon="2.95251">
        <ele>1073</ele>
        <time>2015-10-17T22:10:16Z</time>
      </trkpt>
      <trkpt lat="45.78605" lon="2.95335">
        <ele>1071</ele>
        <time>2015-10-17T22:12:16Z</time>
      </trkpt>
      <trkpt lat="45.78611" lon="2.95376">
        <ele>1072</ele>
        <time>2015-10-17T22:14:16Z</time>
      </trkpt>
      <trkpt lat="45.78609" lon="2.95421">
        <ele>1071</ele>
        <time>2015-10-17T22:16:16Z</time>
      </trkpt>
      <trkpt lat="45.78596" lon="2.95481">
        <ele>1069</ele>
        <time>2015-10-17T22:18:16Z</time>
      </trkpt>
      <trkpt lat="45.78591" lon="2.95537">
        <ele>1068</ele>
        <time>2015-10-17T22:20:16Z</time>
      </trkpt>
      <trkpt lat="45.78591" lon="2.95601">
        <ele>1068</ele>
        <time>2015-10-17T22:22:16Z</time>
      </trkpt>
      <trkpt lat="45.78579" lon="2.95659">
        <ele>1067</ele>
        <time>2015-10-17T22:24:16Z</time>
      </trkpt>
      <trkpt lat="45.78582" lon="2.95734">
        <ele>1070</ele>
        <time>2015-10-17T22:26:16Z</time>
      </trkpt>
      <trkpt lat="45.78585" lon="2.95792">
        <ele>1072</ele>
        <time>2015-10-17T22:28:16Z</time>
      </trkpt>
      <trkpt lat="45.7859" lon="2.95867">
        <ele>1075</ele>
        <time>2015-10-17T22:30:16Z</time>
      </trkpt>
      <trkpt lat="45.786" lon="2.95927">
        <ele>1079</ele>
        <time>2015-10-17T22:32:16Z</time>
      </trkpt>
      <trkpt lat="45.78615" lon="2.95985">
        <ele>1085</ele>
        <time>2015-10-17T22:34:16Z</time>
      </trkpt>
      <trkpt lat="45.78632" lon="2.96035">
        <ele>1089</ele>
        <time>2015-10-17T22:36:16Z</time>
      </trkpt>
      <trkpt lat="45.78647" lon="2.9609">
        <ele>1094</ele>
        <time>2015-10-17T22:38:16Z</time>
      </trkpt>
      <trkpt lat="45.78675" lon="2.96138">
        <ele>1101</ele>
        <time>2015-10-17T22:40:16Z</time>
      </trkpt>
      <trkpt lat="45.78707" lon="2.96202">
        <ele>1112</ele>
        <time>2015-10-17T22:42:16Z</time>
      </trkpt>
      <trkpt lat="45.78728" lon="2.96262">
        <ele>1120</ele>
        <time>2015-10-17T22:44:16Z</time>
      </trkpt>
      <trkpt lat="45.78757" lon="2.96341">
        <ele>1129</ele>
        <time>2015-10-17T22:46:16Z</time>
      </trkpt>
      <trkpt lat="45.78793" lon="2.96303">
        <ele>1134</ele>
        <time>2015-10-17T22:48:16Z</time>
      </trkpt>
      <trkpt lat="45.78819" lon="2.96249">
        <ele>1139</ele>
        <time>2015-10-17T22:50:16Z</time>
      </trkpt>
      <trkpt lat="45.78823" lon="2.9617">
        <ele>1144</ele>
        <time>2015-10-17T22:52:16Z</time>
      </trkpt>
      <trkpt lat="45.78819" lon="2.96103">
        <ele>1144</ele>
        <time>2015-10-17T22:54:16Z</time>
      </trkpt>
      <trkpt lat="45.78814" lon="2.96054">
        <ele>1144</ele>
        <time>2015-10-17T22:56:16Z</time>
      </trkpt>
      <trkpt lat="45.78814" lon="2.95994">
        <ele>1145</ele>
        <time>2015-10-17T22:58:16Z</time>
      </trkpt>
      <trkpt lat="45.78838" lon="2.9594">
        <ele>1151</ele>
        <time>2015-10-17T23:00:16Z</time>
      </trkpt>
      <trkpt lat="45.78876" lon="2.95874">
        <ele>1156</ele>
        <time>2015-10-17T23:02:16Z</time>
      </trkpt>
      <trkpt lat="45.78897" lon="2.95839">
        <ele>1159</ele>
        <time>2015-10-17T23:04:16Z</time>
      </trkpt>
      <trkpt lat="45.78946" lon="2.95863">
        <ele>1168</ele>
        <time>2015-10-17T23:06:16Z</time>
      </trkpt>
      <trkpt lat="45.79004" lon="2.95889">
        <ele>1170</ele>
        <time>2015-10-17T23:08:16Z</time>
      </trkpt>
      <trkpt lat="45.78994" lon="2.9594">
        <ele>1171</ele>
        <time>2015-10-17T23:10:16Z</time>
      </trkpt>
      <trkpt lat="45.78974" lon="2.96037">
        <ele>1184</ele>
        <time>2015-10-17T23:12:16Z</time>
      </trkpt>
      <trkpt lat="45.78991" lon="2.96118">
        <ele>1190</ele>
        <time>2015-10-17T23:14:16Z</time>
      </trkpt>
      <trkpt lat="45.79006" lon="2.96181">
        <ele>1189</ele>
        <time>2015-10-17T23:16:16Z</time>
      </trkpt>
      <trkpt lat="45.79015" lon="2.96238">
        <ele>1182</ele>
        <time>2015-10-17T23:18:16Z</time>
      </trkpt>
      <trkpt lat="45.79039" lon="2.96284">
        <ele>1172</ele>
        <time>2015-10-17T23:20:16Z</time>
      </trkpt>
      <trkpt lat="45.79048" lon="2.96348">
        <ele>1162</ele>
        <time>2015-10-17T23:22:16Z</time>
      </trkpt>
      <trkpt lat="45.79064" lon="2.96395">
        <ele>1156</ele>
        <time>2015-10-17T23:24:16Z</time>
      </trkpt>
      <trkpt lat="45.79081" lon="2.96447">
        <ele>1149</ele>
        <time>2015-10-17T23:26:16Z</time>
      </trkpt>
      <trkpt lat="45.79109" lon="2.96513">
        <ele>1136</ele>
        <time>2015-10-17T23:28:16Z</time>
      </trkpt>
      <trkpt lat="45.7913" lon="2.96569">
        <ele>1128</ele>
        <time>2015-10-17T23:30:16Z</time>
      </trkpt>
      <trkpt lat="45.79157" lon="2.96623">
        <ele>1120</ele>
        <time>2015-10-17T23:32:16Z</time>
      </trkpt>
      <trkpt lat="45.79173" lon="2.96663">
        <ele>1114</ele>
        <time>2015-10-17T23:34:16Z</time>
      </trkpt>
      <trkpt lat="45.7919" lon="2.96702">
        <ele>1109</ele>
        <time>2015-10-17T23:36:16Z</time>
      </trkpt>
      <trkpt lat="45.79206" lon="2.96734">
        <ele>1104</ele>
        <time>2015-10-17T23:38:16Z</time>
      </trkpt>
      <trkpt lat="45.79236" lon="2.96766">
        <ele>1098</ele>
        <time>2015-10-17T23:40:16Z</time>
      </trkpt>
      <trkpt lat="45.79275" lon="2.96811">
        <ele>1093</ele>
        <time>2015-10-17T23:42:16Z</time>
      </trkpt>
      <trkpt lat="45.79322" lon="2.96852">
        <ele>1092</ele>
        <time>2015-10-17T23:44:16Z</time>
      </trkpt>
      <trkpt lat="45.79323" lon="2.96917">
        <ele>1092</ele>
        <time>2015-10-17T23:46:16Z</time>
      </trkpt>
      <trkpt lat="45.79348" lon="2.96977">
        <ele>1097</ele>
        <time>2015-10-17T23:48:16Z</time>
      </trkpt>
      <trkpt lat="45.79363" lon="2.97024">
        <ele>1103</ele>
        <time>2015-10-17T23:50:16Z</time>
      </trkpt>
      <trkpt lat="45.79378" lon="2.97069">
        <ele>1109</ele>
        <time>2015-10-17T23:52:16Z</time>
      </trkpt>
      <trkpt lat="45.79398" lon="2.97103">
        <ele>1117</ele>
        <time>2015-10-17T23:54:16Z</time>
      </trkpt>
      <trkpt lat="45.79431" lon="2.97148">
        <ele>1129</ele>
        <time>2015-10-17T23:56:16Z</time>
      </trkpt>
      <trkpt lat="45.79455" lon="2.972">
        <ele>1134</ele>
        <time>2015-10-17T23:58:16Z</time>
      </trkpt>
      <trkpt lat="45.79489" lon="2.97245">
        <ele>1144</ele>
        <time>2015-10-18T00:00:16Z</time>
      </trkpt>
      <trkpt lat="45.79531" lon="2.97281">
        <ele>1152</ele>
        <time>2015-10-18T00:02:16Z</time>
      </trkpt>
      <trkpt lat="45.7957" lon="2.9732">
        <ele>1163</ele>
        <time>2015-10-18T00:04:16Z</time>
      </trkpt>
      <trkpt lat="45.79612" lon="2.97331">
        <ele>1170</ele>
        <time>2015-10-18T00:06:16Z</time>
      </trkpt>
      <trkpt lat="45.79649" lon="2.97376">
        <ele>1170</ele>
        <time>2015-10-18T00:08:16Z</time>
      </trkpt>
      <trkpt lat="45.79712" lon="2.97371">
        <ele>1168</ele>
        <time>2015-10-18T00:10:16Z</time>
      </trkpt>
      <trkpt lat="45.79761" lon="2.97337">
        <ele>1164</ele>
        <time>2015-10-18T00:12:16Z</time>
      </trkpt>
      <trkpt lat="45.79791" lon="2.97294">
        <ele>1156</ele>
        <time>2015-10-18T00:14:16Z</time>
      </trkpt>
      <trkpt lat="45.79809" lon="2.97238">
        <ele>1152</ele>
        <time>2015-10-18T00:16:16Z</time>
      </trkpt>
      <trkpt lat="45.79812" lon="2.9718">
        <ele>1147</ele>
        <time>2015-10-18T00:18:16Z</time>
      </trkpt>
      <trkpt lat="45.79808" lon="2.97125">
        <ele>1145</ele>
        <time>2015-10-18T00:20:16Z</time>
      </trkpt>
      <trkpt lat="45.79835" lon="2.97176">
        <ele>1149</ele>
        <time>2015-10-18T00:22:16Z</time>
      </trkpt>
      <trkpt lat="45.79853" lon="2.97238">
        <ele>1145</ele>
        <time>2015-10-18T00:24:16Z</time>
      </trkpt>
      <trkpt lat="45.79854" lon="2.9732">
        <ele>1144</ele>
        <time>2015-10-18T00:26:16Z</time>
      </trkpt>
      <trkpt lat="45.79854" lon="2.97401">
        <ele>1136</ele>
        <time>2015-10-18T00:28:16Z</time>
      </trkpt>
      <trkpt lat="45.79847" lon="2.97472">
        <ele>1129</ele>
        <time>2015-10-18T00:30:16Z</time>
      </trkpt>
      <trkpt lat="45.79835" lon="2.97526">
        <ele>1124</ele>
        <time>2015-10-18T00:32:16Z</time>
      </trkpt>
      <trkpt lat="45.79821" lon="2.97584">
        <ele>1115</ele>
        <time>2015-10-18T00:34:16Z</time>
      </trkpt>
      <trkpt lat="45.79799" lon="2.97642">
        <ele>1106</ele>
        <time>2015-10-18T00:36:16Z</time>
      </trkpt>
      <trkpt lat="45.79775" lon="2.97695">
        <ele>1096</ele>
        <time>2015-10-18T00:38:16Z</time>
      </trkpt>
      <trkpt lat="45.7974" lon="2.97751">
        <ele>1083</ele>
        <time>2015-10-18T00:40:16Z</time>
      </trkpt>
      <trkpt lat="45.7979" lon="2.97743">
        <ele>1086</ele>
        <time>2015-10-18T00:42:16Z</time>
      </trkpt>
      <trkpt lat="45.7976" lon="2.97822">
        <ele>1070</ele>
        <time>2015-10-18T00:44:16Z</time>
      </trkpt>
      <trkpt lat="45.79818" lon="2.97811">
        <ele>1074</ele>
        <time>2015-10-18T00:46:16Z</time>
      </trkpt>
      <trkpt lat="45.79887" lon="2.97809">
        <ele>1073</ele>
        <time>2015-10-18T00:48:16Z</time>
      </trkpt>
      <trkpt lat="45.79947" lon="2.97792">
        <ele>1073</ele>
        <time>2015-10-18T00:50:16Z</time>
      </trkpt>
      <trkpt lat="45.7999" lon="2.97753">
        <ele>1076</ele>
        <time>2015-10-18T00:52:16Z</time>
      </trkpt>
      <trkpt lat="45.79996" lon="2.97687">
        <ele>1076</ele>
        <time>2015-10-18T00:54:16Z</time>
      </trkpt>
      <trkpt lat="45.80022" lon="2.9764">
        <ele>1071</ele>
        <time>2015-10-18T00:56:16Z</time>
      </trkpt>
      <trkpt lat="45.80031" lon="2.97592">
        <ele>1068</ele>
        <time>2015-10-18T00:58:16Z</time>
      </trkpt>
      <trkpt lat="45.80035" lon="2.97524">
        <ele>1068</ele>
        <time>2015-10-18T01:00:16Z</time>
      </trkpt>
      <trkpt lat="45.80037" lon="2.97479">
        <ele>1069</ele>
        <time>2015-10-18T01:02:16Z</time>
      </trkpt>
      <trkpt lat="45.80089" lon="2.97425">
        <ele>1061</ele>
        <time>2015-10-18T01:04:16Z</time>
      </trkpt>
      <trkpt lat="45.8011" lon="2.9741">
        <ele>1060</ele>
        <time>2015-10-18T01:06:16Z</time>
      </trkpt>
      <trkpt lat="45.80122" lon="2.97459">
        <ele>1053</ele>
        <time>2015-10-18T01:08:16Z</time>
      </trkpt>
      <trkpt lat="45.80189" lon="2.97429">
        <ele>1048</ele>
        <time>2015-10-18T01:10:16Z</time>
      </trkpt>
      <trkpt lat="45.80228" lon="2.97421">
        <ele>1045</ele>
        <time>2015-10-18T01:12:16Z</time>
      </trkpt>
      <trkpt lat="45.80266" lon="2.97438">
        <ele>1037</ele>
        <time>2015-10-18T01:14:16Z</time>
      </trkpt>
      <trkpt lat="45.803" lon="2.97472">
        <ele>1029</ele>
        <time>2015-10-18T01:16:16Z</time>
      </trkpt>
      <trkpt lat="45.80358" lon="2.97474">
        <ele>1028</ele>
        <time>2015-10-18T01:18:16Z</time>
      </trkpt>
      <trkpt lat="45.80394" lon="2.97507">
        <ele>1024</ele>
        <time>2015-10-18T01:20:16Z</time>
      </trkpt>
      <trkpt lat="45.80423" lon="2.9752">
        <ele>1024</ele>
        <time>2015-10-18T01:22:16Z</time>
      </trkpt>
      <trkpt lat="45.8046" lon="2.97569">
        <ele>1023</ele>
        <time>2015-10-18T01:24:16Z</time>
      </trkpt>
      <trkpt lat="45.80453" lon="2.97631">
        <ele>1025</ele>
        <time>2015-10-18T01:26:16Z</time>
      </trkpt>
      <trkpt lat="45.80457" lon="2.97704">
        <ele>1025</ele>
        <time>2015-10-18T01:28:16Z</time>
      </trkpt>
      <trkpt lat="45.80453" lon="2.97781">
        <ele>1022</ele>
        <time>2015-10-18T01:30:16Z</time>
      </trkpt>
      <trkpt lat="45.80453" lon="2.97876">
        <ele>1017</ele>
        <time>2015-10-18T01:32:16Z</time>
      </trkpt>
      <trkpt lat="45.80442" lon="2.97964">
        <ele>1011</ele>
        <time>2015-10-18T01:34:16Z</time>
      </trkpt>
      <trkpt lat="45.80424" lon="2.98011">
        <ele>1009</ele>
        <time>2015-10-18T01:36:16Z</time>
      </trkpt>
      <trkpt lat="45.80403" lon="2.98071">
        <ele>1002</ele>
        <time>2015-10-18T01:38:16Z</time>
      </trkpt>
      <trkpt lat="45.80394" lon="2.98107">
        <ele>998</ele>
        <time>2015-10-18T01:40:16Z</time>
      </trkpt>
      <trkpt lat="45.80387" lon="2.98144">
        <ele>996</ele>
        <time>2015-10-18T01:42:16Z</time>
      </trkpt>
      <trkpt lat="45.80388" lon="2.98195">
        <ele>993</ele>
        <time>2015-10-18T01:44:16Z</time>
      </trkpt>
      <trkpt lat="45.80375" lon="2.98234">
        <ele>991</ele>
        <time>2015-10-18T01:46:16Z</time>
      </trkpt>
      <trkpt lat="45.80346" lon="2.98279">
        <ele>989</ele>
        <time>2015-10-18T01:48:16Z</time>
      </trkpt>
      <trkpt lat="45.80343" lon="2.98307">
        <ele>988</ele>
        <time>2015-10-18T01:50:16Z</time>
      </trkpt>
      <trkpt lat="45.80349" lon="2.98354">
        <ele>985</ele>
        <time>2015-10-18T01:52:16Z</time>
      </trkpt>
      <trkpt lat="45.8037" lon="2.98393">
        <ele>983</ele>
        <time>2015-10-18T01:54:16Z</time>
      </trkpt>
      <trkpt lat="45.80367" lon="2.98423">
        <ele>981</ele>
        <time>2015-10-18T01:56:16Z</time>
      </trkpt>
      <trkpt lat="45.80349" lon="2.98438">
        <ele>981</ele>
        <time>2015-10-18T01:58:16Z</time>
      </trkpt>
      <trkpt lat="45.80313" lon="2.98474">
        <ele>981</ele>
        <time>2015-10-18T02:00:16Z</time>
      </trkpt>
      <trkpt lat="45.80312" lon="2.98498">
        <ele>981</ele>
        <time>2015-10-18T02:02:16Z</time>
      </trkpt>
      <trkpt lat="45.80348" lon="2.98528">
        <ele>979</ele>
        <time>2015-10-18T02:04:16Z</time>
      </trkpt>
      <trkpt lat="45.80357" lon="2.98558">
        <ele>978</ele>
        <time>2015-10-18T02:06:16Z</time>
      </trkpt>
      <trkpt lat="45.8034" lon="2.9861">
        <ele>976</ele>
        <time>2015-10-18T02:08:16Z</time>
      </trkpt>
      <trkpt lat="45.80321" lon="2.9867">
        <ele>974</ele>
        <time>2015-10-18T02:10:16Z</time>
      </trkpt>
    </trkseg>
  </trk>
</gpx>